New Mines, Pennsylvania
Current Conditions -  °F | °C
As of 10:26 AM on Wednesday 26 Nov 2014 (Local Time) from KMUI Reporting Station
Light Snow Light Snow  
Wind Chill: 32°   Ceiling: 900
Heat Index: 32°   Visibility: 1mi
Dew Point: 32°   Wind: 0mph
Humidity: 100%   Direction: NA
Pressure: 30.11"   Gusts: NA
Location:  40.6756°N, 76.3278°W
Report Text: KMUI 261526Z AUTO 00000KT 1SM -SN BR VV009 00/00 A3011 RMK AO2 CIG 007V009 RVRNO $
Loading
Personal Weather Stations






























Interactive Weather Map New forecast layout! Learn more

10-Day Weather Forecast

Advertisements
Track Severe Weather on mobile